sensor_id;sensor_type;location;lat;lon;timestamp;P1;durP1;ratioP1;P2;durP2;ratioP2
49488;SDS011;35382;51.484;11.476;2022-11-20T00:00:55;23.50;;;13.20;;
49488;SDS011;35382;51.484;11.476;2022-11-20T00:02:36;24.70;;;12.55;;
49488;SDS011;35382;51.484;11.476;2022-11-20T00:04:16;23.55;;;12.00;;
49488;SDS011;35382;51.484;11.476;2022-11-20T00:06:01;23.52;;;13.13;;
49488;SDS011;35382;51.484;11.476;2022-11-20T00:07:43;25.35;;;13.10;;
49488;SDS011;35382;51.484;11.476;2022-11-20T00:09:25;24.02;;;11.98;;
49488;SDS011;35382;51.484;11.476;2022-11-20T00:11:07;22.38;;;12.50;;
49488;SDS011;35382;51.484;11.476;2022-11-20T00:12:50;21.73;;;12.15;;
49488;SDS011;35382;51.484;11.476;2022-11-20T00:14:30;24.55;;;13.15;;
49488;SDS011;35382;51.484;11.476;2022-11-20T00:16:13;24.63;;;13.63;;
49488;SDS011;35382;51.484;11.476;2022-11-20T00:17:55;22.38;;;12.13;;
49488;SDS011;35382;51.484;11.476;2022-11-20T00:19:36;21.10;;;12.40;;
49488;SDS011;35382;51.484;11.476;2022-11-20T00:21:18;21.55;;;12.55;;
49488;SDS011;35382;51.484;11.476;2022-11-20T00:23:01;22.15;;;12.43;;
49488;SDS011;35382;51.484;11.476;2022-11-20T00:24:42;22.25;;;13.02;;
49488;SDS011;35382;51.484;11.476;2022-11-20T00:26:24;24.67;;;13.27;;
49488;SDS011;35382;51.484;11.476;2022-11-20T00:28:06;23.13;;;12.35;;
49488;SDS011;35382;51.484;11.476;2022-11-20T00:29:47;21.67;;;12.20;;
49488;SDS011;35382;51.484;11.476;2022-11-20T00:31:29;24.05;;;13.85;;
49488;SDS011;35382;51.484;11.476;2022-11-20T00:33:11;23.67;;;12.55;;
49488;SDS011;35382;51.484;11.476;2022-11-20T00:34:52;25.80;;;12.68;;
49488;SDS011;35382;51.484;11.476;2022-11-20T00:36:33;23.25;;;13.02;;
49488;SDS011;35382;51.484;11.476;2022-11-20T00:38:14;24.67;;;13.75;;
49488;SDS011;35382;51.484;11.476;2022-11-20T00:39:55;25.98;;;14.05;;
49488;SDS011;35382;51.484;11.476;2022-11-20T00:41:36;25.88;;;13.48;;
49488;SDS011;35382;51.484;11.476;2022-11-20T00:43:17;22.42;;;13.38;;
49488;SDS011;35382;51.484;11.476;2022-11-20T00:44:58;27.15;;;14.40;;
49488;SDS011;35382;51.484;11.476;2022-11-20T00:46:39;26.88;;;13.38;;
49488;SDS011;35382;51.484;11.476;2022-11-20T00:48:20;22.05;;;13.00;;
49488;SDS011;35382;51.484;11.476;2022-11-20T00:50:01;21.95;;;12.23;;
49488;SDS011;35382;51.484;11.476;2022-11-20T00:51:42;24.77;;;13.40;;
49488;SDS011;35382;51.484;11.476;2022-11-20T00:53:23;21.90;;;13.05;;
49488;SDS011;35382;51.484;11.476;2022-11-20T00:55:05;25.80;;;13.07;;
49488;SDS011;35382;51.484;11.476;2022-11-20T00:56:46;22.83;;;12.73;;
49488;SDS011;35382;51.484;11.476;2022-11-20T00:58:31;22.55;;;12.32;;
49488;SDS011;35382;51.484;11.476;2022-11-20T01:00:14;23.08;;;12.10;;
49488;SDS011;35382;51.484;11.476;2022-11-20T01:01:56;25.67;;;13.18;;
49488;SDS011;35382;51.484;11.476;2022-11-20T01:03:37;22.55;;;12.50;;
49488;SDS011;35382;51.484;11.476;2022-11-20T01:05:20;23.77;;;13.25;;
49488;SDS011;35382;51.484;11.476;2022-11-20T01:07:01;21.10;;;12.45;;
49488;SDS011;35382;51.484;11.476;2022-11-20T01:08:42;23.35;;;13.70;;
49488;SDS011;35382;51.484;11.476;2022-11-20T01:10:24;23.63;;;12.65;;
49488;SDS011;35382;51.484;11.476;2022-11-20T01:12:05;23.73;;;13.35;;
49488;SDS011;35382;51.484;11.476;2022-11-20T01:13:47;28.17;;;14.20;;
49488;SDS011;35382;51.484;11.476;2022-11-20T01:15:30;24.30;;;13.70;;
49488;SDS011;35382;51.484;11.476;2022-11-20T01:17:11;25.48;;;13.95;;
49488;SDS011;35382;51.484;11.476;2022-11-20T01:18:52;24.25;;;13.77;;
49488;SDS011;35382;51.484;11.476;2022-11-20T01:20:35;23.35;;;13.60;;
49488;SDS011;35382;51.484;11.476;2022-11-20T01:22:16;22.92;;;12.80;;
49488;SDS011;35382;51.484;11.476;2022-11-20T01:23:59;22.70;;;13.15;;
49488;SDS011;35382;51.484;11.476;2022-11-20T01:25:40;22.75;;;13.55;;
49488;SDS011;35382;51.484;11.476;2022-11-20T01:27:21;25.30;;;14.00;;
49488;SDS011;35382;51.484;11.476;2022-11-20T01:29:02;26.13;;;14.13;;
49488;SDS011;35382;51.484;11.476;2022-11-20T01:30:44;21.95;;;13.60;;
49488;SDS011;35382;51.484;11.476;2022-11-20T01:32:25;23.83;;;12.40;;
49488;SDS011;35382;51.484;11.476;2022-11-20T01:34:07;25.83;;;13.00;;
49488;SDS011;35382;51.484;11.476;2022-11-20T01:35:51;21.98;;;13.52;;
49488;SDS011;35382;51.484;11.476;2022-11-20T01:37:32;23.27;;;13.43;;
49488;SDS011;35382;51.484;11.476;2022-11-20T01:39:15;25.55;;;13.65;;
49488;SDS011;35382;51.484;11.476;2022-11-20T01:40:58;25.05;;;13.60;;
49488;SDS011;35382;51.484;11.476;2022-11-20T01:42:44;24.75;;;13.10;;
49488;SDS011;35382;51.484;11.476;2022-11-20T01:44:52;23.25;;;12.70;;
49488;SDS011;35382;51.484;11.476;2022-11-20T01:46:38;24.40;;;13.20;;
49488;SDS011;35382;51.484;11.476;2022-11-20T01:48:23;26.60;;;13.57;;
49488;SDS011;35382;51.484;11.476;2022-11-20T01:50:10;25.60;;;13.70;;
49488;SDS011;35382;51.484;11.476;2022-11-20T01:51:58;20.55;;;12.32;;
49488;SDS011;35382;51.484;11.476;2022-11-20T01:53:45;26.63;;;13.80;;
49488;SDS011;35382;51.484;11.476;2022-11-20T01:55:34;22.92;;;12.77;;
49488;SDS011;35382;51.484;11.476;2022-11-20T01:57:18;23.55;;;13.43;;
49488;SDS011;35382;51.484;11.476;2022-11-20T01:59:02;23.77;;;13.98;;
49488;SDS011;35382;51.484;11.476;2022-11-20T02:00:46;21.85;;;12.63;;
49488;SDS011;35382;51.484;11.476;2022-11-20T02:02:27;24.25;;;13.15;;
49488;SDS011;35382;51.484;11.476;2022-11-20T02:04:08;23.42;;;12.93;;
49488;SDS011;35382;51.484;11.476;2022-11-20T02:06:08;22.40;;;12.30;;
49488;SDS011;35382;51.484;11.476;2022-11-20T02:07:55;23.50;;;12.80;;
49488;SDS011;35382;51.484;11.476;2022-11-20T02:09:38;25.77;;;13.57;;
49488;SDS011;35382;51.484;11.476;2022-11-20T02:11:19;25.70;;;14.57;;
49488;SDS011;35382;51.484;11.476;2022-11-20T02:13:00;28.60;;;14.38;;
49488;SDS011;35382;51.484;11.476;2022-11-20T02:15:00;24.20;;;13.43;;
49488;SDS011;35382;51.484;11.476;2022-11-20T02:16:43;24.30;;;14.07;;
49488;SDS011;35382;51.484;11.476;2022-11-20T02:18:26;23.55;;;13.25;;
49488;SDS011;35382;51.484;11.476;2022-11-20T02:20:09;24.35;;;13.68;;
49488;SDS011;35382;51.484;11.476;2022-11-20T02:25:36;23.73;;;13.13;;
49488;SDS011;35382;51.484;11.476;2022-11-20T02:27:18;27.00;;;12.68;;
49488;SDS011;35382;51.484;11.476;2022-11-20T02:28:59;23.40;;;12.60;;
49488;SDS011;35382;51.484;11.476;2022-11-20T02:30:42;22.90;;;12.18;;
49488;SDS011;35382;51.484;11.476;2022-11-20T02:32:24;24.13;;;13.15;;
49488;SDS011;35382;51.484;11.476;2022-11-20T02:34:07;24.05;;;13.52;;
49488;SDS011;35382;51.484;11.476;2022-11-20T02:35:48;23.73;;;13.25;;
49488;SDS011;35382;51.484;11.476;2022-11-20T02:37:30;24.17;;;13.25;;
49488;SDS011;35382;51.484;11.476;2022-11-20T02:39:15;26.40;;;14.02;;
49488;SDS011;35382;51.484;11.476;2022-11-20T02:40:57;25.33;;;12.85;;
49488;SDS011;35382;51.484;11.476;2022-11-20T02:42:38;20.92;;;12.40;;
49488;SDS011;35382;51.484;11.476;2022-11-20T02:44:19;24.90;;;13.38;;
49488;SDS011;35382;51.484;11.476;2022-11-20T02:46:01;21.73;;;12.68;;
49488;SDS011;35382;51.484;11.476;2022-11-20T02:47:42;24.15;;;13.10;;
49488;SDS011;35382;51.484;11.476;2022-11-20T02:49:22;25.88;;;13.32;;
49488;SDS011;35382;51.484;11.476;2022-11-20T02:51:03;24.13;;;13.90;;
49488;SDS011;35382;51.484;11.476;2022-11-20T02:52:44;24.15;;;12.77;;
49488;SDS011;35382;51.484;11.476;2022-11-20T02:54:25;22.77;;;13.15;;
49488;SDS011;35382;51.484;11.476;2022-11-20T02:56:07;24.50;;;13.25;;
49488;SDS011;35382;51.484;11.476;2022-11-20T02:57:47;24.15;;;13.00;;
49488;SDS011;35382;51.484;11.476;2022-11-20T02:59:28;22.33;;;12.98;;
49488;SDS011;35382;51.484;11.476;2022-11-20T03:01:09;21.63;;;12.30;;
49488;SDS011;35382;51.484;11.476;2022-11-20T03:02:50;25.63;;;13.68;;
49488;SDS011;35382;51.484;11.476;2022-11-20T03:04:31;28.75;;;14.20;;
49488;SDS011;35382;51.484;11.476;2022-11-20T03:06:12;24.73;;;13.70;;
49488;SDS011;35382;51.484;11.476;2022-11-20T03:07:54;23.60;;;13.52;;
49488;SDS011;35382;51.484;11.476;2022-11-20T03:09:35;23.08;;;12.98;;
49488;SDS011;35382;51.484;11.476;2022-11-20T03:11:16;22.92;;;13.00;;
49488;SDS011;35382;51.484;11.476;2022-11-20T03:12:57;20.70;;;12.60;;
49488;SDS011;35382;51.484;11.476;2022-11-20T03:14:38;24.10;;;13.15;;
49488;SDS011;35382;51.484;11.476;2022-11-20T03:16:20;24.27;;;13.18;;
49488;SDS011;35382;51.484;11.476;2022-11-20T03:18:02;24.25;;;13.05;;
49488;SDS011;35382;51.484;11.476;2022-11-20T03:19:44;21.60;;;12.05;;
49488;SDS011;35382;51.484;11.476;2022-11-20T03:21:25;24.13;;;12.48;;
49488;SDS011;35382;51.484;11.476;2022-11-20T03:23:06;23.63;;;12.52;;
49488;SDS011;35382;51.484;11.476;2022-11-20T03:24:47;23.05;;;12.13;;
49488;SDS011;35382;51.484;11.476;2022-11-20T03:26:28;22.13;;;12.02;;
49488;SDS011;35382;51.484;11.476;2022-11-20T03:28:09;26.02;;;13.15;;
49488;SDS011;35382;51.484;11.476;2022-11-20T03:29:50;22.48;;;13.38;;
49488;SDS011;35382;51.484;11.476;2022-11-20T03:31:32;22.55;;;12.20;;
49488;SDS011;35382;51.484;11.476;2022-11-20T03:33:15;23.70;;;12.70;;
49488;SDS011;35382;51.484;11.476;2022-11-20T03:34:56;21.45;;;12.32;;
49488;SDS011;35382;51.484;11.476;2022-11-20T03:36:41;23.63;;;12.73;;
49488;SDS011;35382;51.484;11.476;2022-11-20T03:38:22;23.98;;;12.55;;
49488;SDS011;35382;51.484;11.476;2022-11-20T03:40:05;20.40;;;11.43;;
49488;SDS011;35382;51.484;11.476;2022-11-20T03:41:47;24.80;;;12.48;;
49488;SDS011;35382;51.484;11.476;2022-11-20T03:43:27;23.88;;;12.20;;
49488;SDS011;35382;51.484;11.476;2022-11-20T03:45:08;22.33;;;12.23;;
49488;SDS011;35382;51.484;11.476;2022-11-20T03:46:49;20.98;;;12.25;;
49488;SDS011;35382;51.484;11.476;2022-11-20T03:48:30;24.75;;;13.93;;
49488;SDS011;35382;51.484;11.476;2022-11-20T03:50:12;24.60;;;13.52;;
49488;SDS011;35382;51.484;11.476;2022-11-20T03:51:54;25.73;;;14.07;;
49488;SDS011;35382;51.484;11.476;2022-11-20T03:53:35;26.00;;;13.63;;
49488;SDS011;35382;51.484;11.476;2022-11-20T03:55:16;23.35;;;14.07;;
49488;SDS011;35382;51.484;11.476;2022-11-20T03:56:57;22.30;;;13.18;;
49488;SDS011;35382;51.484;11.476;2022-11-20T03:58:38;26.20;;;13.80;;
49488;SDS011;35382;51.484;11.476;2022-11-20T04:00:20;23.05;;;12.73;;
49488;SDS011;35382;51.484;11.476;2022-11-20T04:02:01;24.27;;;14.23;;
49488;SDS011;35382;51.484;11.476;2022-11-20T04:03:42;23.20;;;13.52;;
49488;SDS011;35382;51.484;11.476;2022-11-20T04:05:24;26.00;;;14.77;;
49488;SDS011;35382;51.484;11.476;2022-11-20T04:07:05;28.15;;;15.38;;
49488;SDS011;35382;51.484;11.476;2022-11-20T04:08:46;29.25;;;15.15;;
49488;SDS011;35382;51.484;11.476;2022-11-20T04:10:27;29.15;;;15.15;;
49488;SDS011;35382;51.484;11.476;2022-11-20T04:12:08;29.85;;;15.80;;
49488;SDS011;35382;51.484;11.476;2022-11-20T04:13:50;27.58;;;15.07;;
49488;SDS011;35382;51.484;11.476;2022-11-20T04:15:36;27.33;;;15.40;;
49488;SDS011;35382;51.484;11.476;2022-11-20T04:17:17;26.13;;;14.75;;
49488;SDS011;35382;51.484;11.476;2022-11-20T04:18:59;29.83;;;14.98;;
49488;SDS011;35382;51.484;11.476;2022-11-20T04:20:41;28.30;;;15.10;;
49488;SDS011;35382;51.484;11.476;2022-11-20T04:22:22;28.13;;;15.30;;
49488;SDS011;35382;51.484;11.476;2022-11-20T04:24:03;26.40;;;15.27;;
49488;SDS011;35382;51.484;11.476;2022-11-20T04:25:44;26.65;;;13.82;;
49488;SDS011;35382;51.484;11.476;2022-11-20T04:27:25;22.95;;;13.18;;
49488;SDS011;35382;51.484;11.476;2022-11-20T04:29:06;26.90;;;14.35;;
49488;SDS011;35382;51.484;11.476;2022-11-20T04:30:50;26.30;;;13.38;;
49488;SDS011;35382;51.484;11.476;2022-11-20T04:32:31;24.75;;;13.27;;
49488;SDS011;35382;51.484;11.476;2022-11-20T04:34:12;25.23;;;14.45;;
49488;SDS011;35382;51.484;11.476;2022-11-20T04:35:53;25.80;;;14.07;;
49488;SDS011;35382;51.484;11.476;2022-11-20T04:37:34;26.30;;;14.07;;
49488;SDS011;35382;51.484;11.476;2022-11-20T04:39:15;24.00;;;13.90;;
49488;SDS011;35382;51.484;11.476;2022-11-20T04:41:01;26.48;;;13.75;;
49488;SDS011;35382;51.484;11.476;2022-11-20T04:42:43;23.58;;;14.05;;
49488;SDS011;35382;51.484;11.476;2022-11-20T04:44:24;27.88;;;15.35;;
49488;SDS011;35382;51.484;11.476;2022-11-20T04:46:05;25.63;;;13.55;;
49488;SDS011;35382;51.484;11.476;2022-11-20T04:47:46;26.92;;;14.95;;
49488;SDS011;35382;51.484;11.476;2022-11-20T04:49:26;25.88;;;15.13;;
49488;SDS011;35382;51.484;11.476;2022-11-20T04:51:07;27.90;;;15.05;;
49488;SDS011;35382;51.484;11.476;2022-11-20T04:52:48;24.80;;;14.35;;
49488;SDS011;35382;51.484;11.476;2022-11-20T04:54:29;26.85;;;14.73;;
49488;SDS011;35382;51.484;11.476;2022-11-20T04:56:11;26.55;;;13.98;;
49488;SDS011;35382;51.484;11.476;2022-11-20T04:57:53;25.95;;;14.13;;
49488;SDS011;35382;51.484;11.476;2022-11-20T04:59:33;24.65;;;13.65;;
49488;SDS011;35382;51.484;11.476;2022-11-20T05:01:15;27.58;;;14.77;;
49488;SDS011;35382;51.484;11.476;2022-11-20T05:03:01;26.15;;;14.82;;
49488;SDS011;35382;51.484;11.476;2022-11-20T05:04:42;28.52;;;15.18;;
49488;SDS011;35382;51.484;11.476;2022-11-20T05:06:23;28.33;;;14.45;;
49488;SDS011;35382;51.484;11.476;2022-11-20T05:08:04;29.10;;;14.73;;
49488;SDS011;35382;51.484;11.476;2022-11-20T05:09:45;27.80;;;15.30;;
49488;SDS011;35382;51.484;11.476;2022-11-20T05:11:26;24.60;;;14.30;;
49488;SDS011;35382;51.484;11.476;2022-11-20T05:13:09;29.80;;;14.73;;
49488;SDS011;35382;51.484;11.476;2022-11-20T05:14:50;26.90;;;14.85;;
49488;SDS011;35382;51.484;11.476;2022-11-20T05:16:31;26.50;;;14.77;;
49488;SDS011;35382;51.484;11.476;2022-11-20T05:18:15;25.33;;;15.20;;
49488;SDS011;35382;51.484;11.476;2022-11-20T05:19:56;27.20;;;15.20;;
49488;SDS011;35382;51.484;11.476;2022-11-20T05:21:37;25.60;;;14.90;;
49488;SDS011;35382;51.484;11.476;2022-11-20T05:23:18;29.05;;;15.50;;
49488;SDS011;35382;51.484;11.476;2022-11-20T05:24:59;28.85;;;15.73;;
49488;SDS011;35382;51.484;11.476;2022-11-20T05:26:39;25.98;;;14.73;;
49488;SDS011;35382;51.484;11.476;2022-11-20T05:28:21;26.80;;;13.82;;
49488;SDS011;35382;51.484;11.476;2022-11-20T05:30:05;24.42;;;14.10;;
49488;SDS011;35382;51.484;11.476;2022-11-20T05:31:47;24.30;;;14.70;;
49488;SDS011;35382;51.484;11.476;2022-11-20T05:33:28;27.42;;;16.00;;
49488;SDS011;35382;51.484;11.476;2022-11-20T05:35:09;27.58;;;15.30;;
49488;SDS011;35382;51.484;11.476;2022-11-20T05:36:50;28.27;;;15.43;;
49488;SDS011;35382;51.484;11.476;2022-11-20T05:38:31;28.35;;;15.02;;
49488;SDS011;35382;51.484;11.476;2022-11-20T05:40:12;26.40;;;14.40;;
49488;SDS011;35382;51.484;11.476;2022-11-20T05:41:53;27.23;;;15.73;;
49488;SDS011;35382;51.484;11.476;2022-11-20T05:43:53;25.95;;;14.23;;
49488;SDS011;35382;51.484;11.476;2022-11-20T05:45:34;29.52;;;16.23;;
49488;SDS011;35382;51.484;11.476;2022-11-20T05:47:15;27.42;;;13.80;;
49488;SDS011;35382;51.484;11.476;2022-11-20T05:48:56;24.77;;;14.38;;
49488;SDS011;35382;51.484;11.476;2022-11-20T05:50:37;30.33;;;16.35;;
49488;SDS011;35382;51.484;11.476;2022-11-20T05:52:19;30.27;;;16.48;;
49488;SDS011;35382;51.484;11.476;2022-11-20T05:54:00;32.67;;;16.30;;
49488;SDS011;35382;51.484;11.476;2022-11-20T05:55:41;55.65;;;24.73;;
49488;SDS011;35382;51.484;11.476;2022-11-20T05:57:21;63.58;;;27.25;;
49488;SDS011;35382;51.484;11.476;2022-11-20T05:59:03;63.72;;;29.23;;
49488;SDS011;35382;51.484;11.476;2022-11-20T06:00:44;60.47;;;29.80;;
49488;SDS011;35382;51.484;11.476;2022-11-20T06:02:24;63.25;;;27.40;;
49488;SDS011;35382;51.484;11.476;2022-11-20T06:04:05;54.47;;;24.67;;
49488;SDS011;35382;51.484;11.476;2022-11-20T06:05:46;47.20;;;22.75;;
49488;SDS011;35382;51.484;11.476;2022-11-20T06:07:27;42.28;;;20.58;;
49488;SDS011;35382;51.484;11.476;2022-11-20T06:09:08;43.63;;;20.50;;
49488;SDS011;35382;51.484;11.476;2022-11-20T06:10:49;37.90;;;19.52;;
49488;SDS011;35382;51.484;11.476;2022-11-20T06:12:31;49.95;;;24.00;;
49488;SDS011;35382;51.484;11.476;2022-11-20T06:14:13;57.10;;;27.02;;
49488;SDS011;35382;51.484;11.476;2022-11-20T06:15:54;84.28;;;39.00;;
49488;SDS011;35382;51.484;11.476;2022-11-20T06:17:35;67.25;;;30.58;;
49488;SDS011;35382;51.484;11.476;2022-11-20T06:19:16;80.72;;;33.47;;
49488;SDS011;35382;51.484;11.476;2022-11-20T06:21:00;99.82;;;41.58;;
49488;SDS011;35382;51.484;11.476;2022-11-20T06:22:41;101.32;;;42.42;;
49488;SDS011;35382;51.484;11.476;2022-11-20T06:24:22;83.90;;;35.75;;
49488;SDS011;35382;51.484;11.476;2022-11-20T06:26:07;54.22;;;25.30;;
49488;SDS011;35382;51.484;11.476;2022-11-20T06:27:50;61.85;;;27.45;;
49488;SDS011;35382;51.484;11.476;2022-11-20T06:29:31;47.70;;;23.50;;
49488;SDS011;35382;51.484;11.476;2022-11-20T06:31:13;51.85;;;25.25;;
49488;SDS011;35382;51.484;11.476;2022-11-20T06:32:55;383.73;;;137.15;;
49488;SDS011;35382;51.484;11.476;2022-11-20T06:34:36;592.72;;;245.20;;
49488;SDS011;35382;51.484;11.476;2022-11-20T06:36:18;478.25;;;193.05;;
49488;SDS011;35382;51.484;11.476;2022-11-20T06:38:00;386.30;;;144.13;;
49488;SDS011;35382;51.484;11.476;2022-11-20T06:39:41;430.33;;;180.07;;
49488;SDS011;35382;51.484;11.476;2022-11-20T06:41:22;239.32;;;95.72;;
49488;SDS011;35382;51.484;11.476;2022-11-20T06:43:03;84.15;;;36.88;;
49488;SDS011;35382;51.484;11.476;2022-11-20T06:44:44;95.35;;;39.92;;
49488;SDS011;35382;51.484;11.476;2022-11-20T06:46:25;53.97;;;25.70;;
49488;SDS011;35382;51.484;11.476;2022-11-20T06:48:06;42.03;;;21.05;;
49488;SDS011;35382;51.484;11.476;2022-11-20T06:49:47;59.10;;;27.20;;
49488;SDS011;35382;51.484;11.476;2022-11-20T06:51:28;51.50;;;23.95;;
49488;SDS011;35382;51.484;11.476;2022-11-20T06:53:09;41.17;;;20.17;;
49488;SDS011;35382;51.484;11.476;2022-11-20T06:54:50;46.33;;;21.88;;
49488;SDS011;35382;51.484;11.476;2022-11-20T06:56:30;33.85;;;17.45;;
49488;SDS011;35382;51.484;11.476;2022-11-20T06:58:12;36.88;;;18.08;;
49488;SDS011;35382;51.484;11.476;2022-11-20T06:59:54;33.33;;;16.85;;
49488;SDS011;35382;51.484;11.476;2022-11-20T07:01:35;33.83;;;16.80;;
49488;SDS011;35382;51.484;11.476;2022-11-20T07:03:16;38.55;;;19.55;;
49488;SDS011;35382;51.484;11.476;2022-11-20T07:04:57;38.28;;;17.75;;
49488;SDS011;35382;51.484;11.476;2022-11-20T07:06:38;39.20;;;19.77;;
49488;SDS011;35382;51.484;11.476;2022-11-20T07:08:19;39.03;;;18.67;;
49488;SDS011;35382;51.484;11.476;2022-11-20T07:10:00;36.60;;;18.13;;
49488;SDS011;35382;51.484;11.476;2022-11-20T07:11:41;40.00;;;18.83;;
49488;SDS011;35382;51.484;11.476;2022-11-20T07:13:22;37.65;;;18.77;;
49488;SDS011;35382;51.484;11.476;2022-11-20T07:15:03;42.03;;;19.45;;
49488;SDS011;35382;51.484;11.476;2022-11-20T07:16:44;38.95;;;19.13;;
49488;SDS011;35382;51.484;11.476;2022-11-20T07:18:25;43.28;;;20.70;;
49488;SDS011;35382;51.484;11.476;2022-11-20T07:20:06;43.10;;;20.40;;
49488;SDS011;35382;51.484;11.476;2022-11-20T07:21:47;46.58;;;20.42;;
49488;SDS011;35382;51.484;11.476;2022-11-20T07:23:28;47.10;;;21.50;;
49488;SDS011;35382;51.484;11.476;2022-11-20T07:25:10;63.60;;;22.90;;
49488;SDS011;35382;51.484;11.476;2022-11-20T07:26:51;60.08;;;23.27;;
49488;SDS011;35382;51.484;11.476;2022-11-20T07:28:32;66.15;;;21.63;;
49488;SDS011;35382;51.484;11.476;2022-11-20T07:30:14;94.60;;;22.60;;
49488;SDS011;35382;51.484;11.476;2022-11-20T07:31:56;96.20;;;24.85;;
49488;SDS011;35382;51.484;11.476;2022-11-20T07:33:37;73.03;;;23.02;;
49488;SDS011;35382;51.484;11.476;2022-11-20T07:35:18;70.45;;;24.27;;
49488;SDS011;35382;51.484;11.476;2022-11-20T07:36:59;62.25;;;22.98;;
49488;SDS011;35382;51.484;11.476;2022-11-20T07:38:40;56.42;;;22.67;;
49488;SDS011;35382;51.484;11.476;2022-11-20T07:40:21;59.30;;;24.50;;
49488;SDS011;35382;51.484;11.476;2022-11-20T07:42:02;62.42;;;25.02;;
49488;SDS011;35382;51.484;11.476;2022-11-20T07:43:43;60.50;;;25.40;;
49488;SDS011;35382;51.484;11.476;2022-11-20T07:45:24;67.85;;;25.10;;
49488;SDS011;35382;51.484;11.476;2022-11-20T07:47:05;55.20;;;19.95;;
49488;SDS011;35382;51.484;11.476;2022-11-20T07:48:46;60.33;;;18.25;;
49488;SDS011;35382;51.484;11.476;2022-11-20T07:50:27;78.38;;;21.45;;
49488;SDS011;35382;51.484;11.476;2022-11-20T07:52:08;89.18;;;22.10;;
49488;SDS011;35382;51.484;11.476;2022-11-20T07:53:52;92.68;;;22.30;;
49488;SDS011;35382;51.484;11.476;2022-11-20T07:55:33;92.15;;;23.67;;
49488;SDS011;35382;51.484;11.476;2022-11-20T07:57:14;119.07;;;23.73;;
49488;SDS011;35382;51.484;11.476;2022-11-20T07:58:55;89.65;;;22.25;;
49488;SDS011;35382;51.484;11.476;2022-11-20T08:00:36;94.82;;;23.40;;
49488;SDS011;35382;51.484;11.476;2022-11-20T08:02:17;88.25;;;22.08;;
49488;SDS011;35382;51.484;11.476;2022-11-20T08:03:58;104.07;;;23.60;;
49488;SDS011;35382;51.484;11.476;2022-11-20T08:05:39;93.38;;;24.50;;
49488;SDS011;35382;51.484;11.476;2022-11-20T08:07:20;95.18;;;24.05;;
49488;SDS011;35382;51.484;11.476;2022-11-20T08:09:01;89.45;;;24.50;;
49488;SDS011;35382;51.484;11.476;2022-11-20T08:10:42;84.30;;;24.45;;
49488;SDS011;35382;51.484;11.476;2022-11-20T08:12:23;99.28;;;23.50;;
49488;SDS011;35382;51.484;11.476;2022-11-20T08:14:22;82.20;;;24.67;;
49488;SDS011;35382;51.484;11.476;2022-11-20T08:16:03;73.90;;;21.77;;
49488;SDS011;35382;51.484;11.476;2022-11-20T08:17:44;75.97;;;24.08;;
49488;SDS011;35382;51.484;11.476;2022-11-20T08:19:25;88.18;;;25.00;;
49488;SDS011;35382;51.484;11.476;2022-11-20T08:21:06;77.50;;;23.65;;
49488;SDS011;35382;51.484;11.476;2022-11-20T08:22:47;84.85;;;24.73;;
49488;SDS011;35382;51.484;11.476;2022-11-20T08:24:28;96.88;;;25.73;;
49488;SDS011;35382;51.484;11.476;2022-11-20T08:26:09;80.22;;;26.05;;
49488;SDS011;35382;51.484;11.476;2022-11-20T08:27:50;97.43;;;28.65;;
49488;SDS011;35382;51.484;11.476;2022-11-20T08:29:31;65.03;;;22.50;;
49488;SDS011;35382;51.484;11.476;2022-11-20T08:31:12;72.93;;;25.38;;
49488;SDS011;35382;51.484;11.476;2022-11-20T08:32:53;77.65;;;26.52;;
49488;SDS011;35382;51.484;11.476;2022-11-20T08:34:34;76.53;;;26.45;;
49488;SDS011;35382;51.484;11.476;2022-11-20T08:36:16;78.82;;;27.13;;
49488;SDS011;35382;51.484;11.476;2022-11-20T08:37:57;66.90;;;24.55;;
49488;SDS011;35382;51.484;11.476;2022-11-20T08:39:38;72.90;;;22.95;;
49488;SDS011;35382;51.484;11.476;2022-11-20T08:41:19;65.50;;;24.42;;
49488;SDS011;35382;51.484;11.476;2022-11-20T08:43:09;54.08;;;22.45;;
49488;SDS011;35382;51.484;11.476;2022-11-20T08:44:49;52.78;;;21.60;;
49488;SDS011;35382;51.484;11.476;2022-11-20T08:46:32;56.30;;;22.27;;
49488;SDS011;35382;51.484;11.476;2022-11-20T08:48:15;54.20;;;22.30;;
49488;SDS011;35382;51.484;11.476;2022-11-20T08:49:56;46.05;;;20.35;;
49488;SDS011;35382;51.484;11.476;2022-11-20T08:51:37;65.20;;;22.83;;
49488;SDS011;35382;51.484;11.476;2022-11-20T08:53:18;46.55;;;21.92;;
49488;SDS011;35382;51.484;11.476;2022-11-20T08:54:59;47.85;;;22.17;;
49488;SDS011;35382;51.484;11.476;2022-11-20T08:56:40;46.95;;;21.67;;
49488;SDS011;35382;51.484;11.476;2022-11-20T08:58:21;50.25;;;22.35;;
49488;SDS011;35382;51.484;11.476;2022-11-20T09:00:05;46.08;;;21.08;;
49488;SDS011;35382;51.484;11.476;2022-11-20T09:01:48;40.67;;;20.92;;
49488;SDS011;35382;51.484;11.476;2022-11-20T09:03:28;47.75;;;20.88;;
49488;SDS011;35382;51.484;11.476;2022-11-20T09:05:09;52.65;;;22.30;;
49488;SDS011;35382;51.484;11.476;2022-11-20T09:06:50;59.22;;;24.20;;
49488;SDS011;35382;51.484;11.476;2022-11-20T09:08:32;52.58;;;22.08;;
49488;SDS011;35382;51.484;11.476;2022-11-20T09:10:13;46.72;;;21.08;;
49488;SDS011;35382;51.484;11.476;2022-11-20T09:11:54;43.50;;;21.27;;
49488;SDS011;35382;51.484;11.476;2022-11-20T09:13:36;42.65;;;20.48;;
49488;SDS011;35382;51.484;11.476;2022-11-20T09:15:17;43.55;;;21.60;;
49488;SDS011;35382;51.484;11.476;2022-11-20T09:16:58;53.03;;;22.83;;
49488;SDS011;35382;51.484;11.476;2022-11-20T09:18:39;48.15;;;22.63;;
49488;SDS011;35382;51.484;11.476;2022-11-20T09:20:20;53.58;;;22.48;;
49488;SDS011;35382;51.484;11.476;2022-11-20T09:22:01;43.78;;;21.30;;
49488;SDS011;35382;51.484;11.476;2022-11-20T09:23:42;48.88;;;22.05;;
49488;SDS011;35382;51.484;11.476;2022-11-20T09:25:24;48.35;;;23.33;;
49488;SDS011;35382;51.484;11.476;2022-11-20T09:27:05;43.83;;;21.30;;
49488;SDS011;35382;51.484;11.476;2022-11-20T09:28:46;45.88;;;21.70;;
49488;SDS011;35382;51.484;11.476;2022-11-20T09:30:27;40.92;;;20.20;;
49488;SDS011;35382;51.484;11.476;2022-11-20T09:32:08;39.42;;;19.63;;
49488;SDS011;35382;51.484;11.476;2022-11-20T09:33:49;40.38;;;19.52;;
49488;SDS011;35382;51.484;11.476;2022-11-20T09:35:30;34.78;;;18.05;;
49488;SDS011;35382;51.484;11.476;2022-11-20T09:37:11;35.78;;;17.85;;
49488;SDS011;35382;51.484;11.476;2022-11-20T09:38:52;34.28;;;18.95;;
49488;SDS011;35382;51.484;11.476;2022-11-20T09:40:34;36.65;;;18.05;;
49488;SDS011;35382;51.484;11.476;2022-11-20T09:42:24;33.85;;;17.27;;
49488;SDS011;35382;51.484;11.476;2022-11-20T09:44:30;32.65;;;18.02;;
49488;SDS011;35382;51.484;11.476;2022-11-20T09:48:35;34.00;;;17.73;;
49488;SDS011;35382;51.484;11.476;2022-11-20T09:50:26;33.07;;;17.90;;
49488;SDS011;35382;51.484;11.476;2022-11-20T09:55:55;33.10;;;17.80;;
49488;SDS011;35382;51.484;11.476;2022-11-20T09:57:37;32.15;;;17.88;;